Kinrikimaru — JL6545 — position and weather

sailwx.info

Track history (hours):
 
Tides and Currents Weather Stations Pressure Air Temp Water Temp Dewpoint Dewpoint Depression Visibility Wind Speed Wind Dir Waves Ship Positions

Kinrikimaru

Last reported at 2016-Aug-23 03:32 UTC. Time now 2016-Aug-29 21:43 UTC.
Position N 34°36' E 135°05'.

Length 76 m; draft 4 m.

Type: Cargo ship. MMSI: 431500615.

Date/timePositionNaut miles runAvg speedWind from/ knotsBaromVisibWave heightAir tempDewpointWater temp
2016-Aug-23 03:32N 34°36' E 135°05'1212.7
2016-Aug-23 02:33N 34°37' E 135°20'5 1.6
2016-Aug-22 23:24N 34°35' E 135°26'0 0.0
2016-Aug-22 22:24N 34°35' E 135°26'0 0.1
2016-Aug-22 20:30N 34°35' E 135°26'0 0.2
2016-Aug-22 19:09N 34°35' E 135°25'0 0.0
2016-Aug-22 18:33N 34°35' E 135°25'0 0.0
2016-Aug-22 16:33N 34°35' E 135°25'0 0.0
2016-Aug-22 15:27N 34°35' E 135°25'0 0.0
2016-Aug-22 12:27N 34°35' E 135°25'0 0.1
2016-Aug-22 11:33N 34°35' E 135°25'0 0.0
2016-Aug-22 10:33N 34°35' E 135°25'5 4.7
2016-Aug-22 09:33N 34°36' E 135°20'1413.9
2016-Aug-22 08:33N 34°36' E 135°03'15 0.6
2016-Aug-21 08:05N 34°41' E 134°46'810.5
2016-Aug-21 07:21N 34°38' E 134°54'8 9.2
2016-Aug-21 06:32N 34°36' E 135°03'1111.4
2016-Aug-21 05:33N 34°37' E 135°17'8 3.4
2016-Aug-21 03:18N 34°35' E 135°26'0 0.0
2016-Aug-21 00:30N 34°35' E 135°26'0 0.0
2016-Aug-20 23:18N 34°35' E 135°26'0 0.5
2016-Aug-20 22:32N 34°35' E 135°25'0 0.0
2016-Aug-20 21:32N 34°35' E 135°25'0 0.0
2016-Aug-20 20:32N 34°35' E 135°25'0 0.1
2016-Aug-20 19:32N 34°35' E 135°25'0 0.0
2016-Aug-20 18:14N 34°35' E 135°25'0 0.0
2016-Aug-20 17:26N 34°35' E 135°25'0 0.0
2016-Aug-20 15:08N 34°35' E 135°25'0 0.0
2016-Aug-20 14:20N 34°35' E 135°25'0 0.0
2016-Aug-20 13:14N 34°35' E 135°25'0 0.0
2016-Aug-20 12:32N 34°35' E 135°25'0 0.1
2016-Aug-20 11:32N 34°35' E 135°25'0 0.0
2016-Aug-20 10:14N 34°35' E 135°25'3 5.0
2016-Aug-20 09:33N 34°36' E 135°21'1312.6
2016-Aug-20 08:33N 34°27' E 135°10'1412.2
2016-Aug-20 07:26N 34°17' E 134°59'24310.6
2016-Aug-19 08:33N 35°14' E 139°46'1111.5
2016-Aug-19 07:33N 35°25' E 139°44'1010.1
2016-Aug-19 06:33N 35°35' E 139°48'1 1.2
2016-Aug-19 05:33N 35°36' E 139°47'0 0.0
2016-Aug-19 04:33N 35°36' E 139°47'0 0.0
2016-Aug-19 03:33N 35°36' E 139°47'0 0.0
2016-Aug-19 02:33N 35°36' E 139°47'0 0.0
2016-Aug-19 01:33N 35°36' E 139°47'0 0.0
2016-Aug-19 00:33N 35°36' E 139°47'0 0.0
2016-Aug-18 23:33N 35°36' E 139°47'3 3.2
2016-Aug-18 22:33N 35°34' E 139°50'1 0.7
2016-Aug-18 21:33N 35°34' E 139°51'0 0.0
2016-Aug-18 20:33N 35°34' E 139°51'0 0.0
2016-Aug-18 19:24N 35°34' E 139°51'0 0.0
2016-Aug-18 18:33N 35°34' E 139°51'0 0.0
2016-Aug-18 17:33N 35°34' E 139°51'0 0.0
2016-Aug-18 16:33N 35°34' E 139°51'0 0.0
2016-Aug-18 15:33N 35°34' E 139°51'0 0.0
2016-Aug-18 14:33N 35°34' E 139°51'0 0.0
2016-Aug-18 13:33N 35°34' E 139°51'0 0.0
2016-Aug-18 12:33N 35°34' E 139°51'0 0.0
2016-Aug-18 11:33N 35°34' E 139°51'0 0.0
2016-Aug-18 10:33N 35°34' E 139°51'0 0.0
2016-Aug-18 09:33N 35°34' E 139°51'0 0.0
2016-Aug-18 08:30N 35°34' E 139°51'0 0.0
2016-Aug-18 07:33N 35°34' E 139°51'0 0.0
2016-Aug-18 06:33N 35°34' E 139°51'0 0.0
2016-Aug-18 05:33N 35°34' E 139°51'4 4.1
2016-Aug-18 04:33N 35°31' E 139°53'1111.4
2016-Aug-18 03:33N 35°21' E 139°45'1212.2
2016-Aug-18 02:33N 35°09' E 139°47'245 9.8
2016-Aug-17 01:33N 34°08' E 134°59'1612.9
2016-Aug-17 00:19N 34°23' E 135°02'1012.9
2016-Aug-16 23:33N 34°29' E 135°12'7 3.0
2016-Aug-16 21:17N 34°32' E 135°20'0 0.0
2016-Aug-16 20:17N 34°32' E 135°20'0 0.0
2016-Aug-16 18:29N 34°32' E 135°20'0 0.1
2016-Aug-16 17:23N 34°32' E 135°20'0 0.0
2016-Aug-16 16:23N 34°32' E 135°20'0 0.0
2016-Aug-16 15:29N 34°32' E 135°20'0 0.1
2016-Aug-16 14:29N 34°32' E 135°20'0 0.1
2016-Aug-16 13:29N 34°32' E 135°20'0 0.0
2016-Aug-16 10:17N 34°32' E 135°20'0 0.0
2016-Aug-16 09:11N 34°32' E 135°20'0 0.0
2016-Aug-16 08:23N 34°32' E 135°20'5 0.6
2016-Aug-15 23:23N 34°35' E 135°26'1 0.1
2016-Aug-15 06:16N 34°35' E 135°27'1810.8
2016-Aug-15 04:33N 34°25' E 135°08'233 9.7
2016-Aug-14 04:33N 35°15' E 139°46'1211.8
2016-Aug-14 03:33N 35°27' E 139°43'3 3.1
2016-Aug-14 02:32N 35°30' E 139°43'0 0.0
2016-Aug-14 01:32N 35°30' E 139°43'0 0.0
2016-Aug-14 00:32N 35°30' E 139°43'0 0.0
2016-Aug-13 23:32N 35°30' E 139°43'0 0.1
2016-Aug-13 22:33N 35°30' E 139°43'4 3.7
2016-Aug-13 21:31N 35°29' E 139°48'0 0.0
2016-Aug-13 20:31N 35°29' E 139°48'0 0.0
2016-Aug-13 19:31N 35°29' E 139°48'0 0.0
2016-Aug-13 18:31N 35°29' E 139°48'0 0.0
2016-Aug-13 17:31N 35°29' E 139°48'0 0.0
2016-Aug-13 16:31N 35°29' E 139°48'0 0.0
2016-Aug-13 15:31N 35°29' E 139°48'0 0.0
2016-Aug-13 14:28N 35°29' E 139°48'0 0.0
2016-Aug-13 13:31N 35°29' E 139°48'0 0.0
2016-Aug-13 12:31N 35°29' E 139°48'0 0.0
2016-Aug-13 11:31N 35°29' E 139°48'0 0.0
2016-Aug-13 10:32N 35°29' E 139°48'1010.0
2016-Aug-13 09:33N 35°19' E 139°44'  
Track history (hours):
 
Tides and Currents Weather Stations Pressure Air Temp Water Temp Dewpoint Dewpoint Depression Visibility Wind Speed Wind Dir Waves Ship Positions

Kinrikimaru

Last reported at 2016-Aug-23 03:32 UTC. Time now 2016-Aug-29 21:43 UTC.
Position N 34°36' E 135°05'.

Length 76 m; draft 4 m.

Type: Cargo ship. MMSI: 431500615.

Date/timePositionNaut miles runAvg speedWind from/ knotsBaromVisibWave heightAir tempDewpointWater temp
2016-Aug-23 03:32N 34°36' E 135°05'1212.7
2016-Aug-23 02:33N 34°37' E 135°20'5 1.6
2016-Aug-22 23:24N 34°35' E 135°26'0 0.0
2016-Aug-22 22:24N 34°35' E 135°26'0 0.1
2016-Aug-22 20:30N 34°35' E 135°26'0 0.2
2016-Aug-22 19:09N 34°35' E 135°25'0 0.0
2016-Aug-22 18:33N 34°35' E 135°25'0 0.0
2016-Aug-22 16:33N 34°35' E 135°25'0 0.0
2016-Aug-22 15:27N 34°35' E 135°25'0 0.0
2016-Aug-22 12:27N 34°35' E 135°25'0 0.1
2016-Aug-22 11:33N 34°35' E 135°25'0 0.0
2016-Aug-22 10:33N 34°35' E 135°25'5 4.7
2016-Aug-22 09:33N 34°36' E 135°20'1413.9
2016-Aug-22 08:33N 34°36' E 135°03'15 0.6
2016-Aug-21 08:05N 34°41' E 134°46'810.5
2016-Aug-21 07:21N 34°38' E 134°54'8 9.2
2016-Aug-21 06:32N 34°36' E 135°03'1111.4
2016-Aug-21 05:33N 34°37' E 135°17'8 3.4
2016-Aug-21 03:18N 34°35' E 135°26'0 0.0
2016-Aug-21 00:30N 34°35' E 135°26'0 0.0
2016-Aug-20 23:18N 34°35' E 135°26'0 0.5
2016-Aug-20 22:32N 34°35' E 135°25'0 0.0
2016-Aug-20 21:32N 34°35' E 135°25'0 0.0
2016-Aug-20 20:32N 34°35' E 135°25'0 0.1
2016-Aug-20 19:32N 34°35' E 135°25'0 0.0
2016-Aug-20 18:14N 34°35' E 135°25'0 0.0
2016-Aug-20 17:26N 34°35' E 135°25'0 0.0
2016-Aug-20 15:08N 34°35' E 135°25'0 0.0
2016-Aug-20 14:20N 34°35' E 135°25'0 0.0
2016-Aug-20 13:14N 34°35' E 135°25'0 0.0
2016-Aug-20 12:32N 34°35' E 135°25'0 0.1
2016-Aug-20 11:32N 34°35' E 135°25'0 0.0
2016-Aug-20 10:14N 34°35' E 135°25'3 5.0
2016-Aug-20 09:33N 34°36' E 135°21'1312.6
2016-Aug-20 08:33N 34°27' E 135°10'1412.2
2016-Aug-20 07:26N 34°17' E 134°59'24310.6
2016-Aug-19 08:33N 35°14' E 139°46'1111.5
2016-Aug-19 07:33N 35°25' E 139°44'1010.1
2016-Aug-19 06:33N 35°35' E 139°48'1 1.2
2016-Aug-19 05:33N 35°36' E 139°47'0 0.0
2016-Aug-19 04:33N 35°36' E 139°47'0 0.0
2016-Aug-19 03:33N 35°36' E 139°47'0 0.0
2016-Aug-19 02:33N 35°36' E 139°47'0 0.0
2016-Aug-19 01:33N 35°36' E 139°47'0 0.0
2016-Aug-19 00:33N 35°36' E 139°47'0 0.0
2016-Aug-18 23:33N 35°36' E 139°47'3 3.2
2016-Aug-18 22:33N 35°34' E 139°50'1 0.7
2016-Aug-18 21:33N 35°34' E 139°51'0 0.0
2016-Aug-18 20:33N 35°34' E 139°51'0 0.0
2016-Aug-18 19:24N 35°34' E 139°51'0 0.0
2016-Aug-18 18:33N 35°34' E 139°51'0 0.0
2016-Aug-18 17:33N 35°34' E 139°51'0 0.0
2016-Aug-18 16:33N 35°34' E 139°51'0 0.0
2016-Aug-18 15:33N 35°34' E 139°51'0 0.0
2016-Aug-18 14:33N 35°34' E 139°51'0 0.0
2016-Aug-18 13:33N 35°34' E 139°51'0 0.0
2016-Aug-18 12:33N 35°34' E 139°51'0 0.0
2016-Aug-18 11:33N 35°34' E 139°51'0 0.0
2016-Aug-18 10:33N 35°34' E 139°51'0 0.0
2016-Aug-18 09:33N 35°34' E 139°51'0 0.0
2016-Aug-18 08:30N 35°34' E 139°51'0 0.0
2016-Aug-18 07:33N 35°34' E 139°51'0 0.0
2016-Aug-18 06:33N 35°34' E 139°51'0 0.0
2016-Aug-18 05:33N 35°34' E 139°51'4 4.1
2016-Aug-18 04:33N 35°31' E 139°53'1111.4
2016-Aug-18 03:33N 35°21' E 139°45'1212.2
2016-Aug-18 02:33N 35°09' E 139°47'245 9.8
2016-Aug-17 01:33N 34°08' E 134°59'1612.9
2016-Aug-17 00:19N 34°23' E 135°02'1012.9
2016-Aug-16 23:33N 34°29' E 135°12'7 3.0
2016-Aug-16 21:17N 34°32' E 135°20'0 0.0
2016-Aug-16 20:17N 34°32' E 135°20'0 0.0
2016-Aug-16 18:29N 34°32' E 135°20'0 0.1
2016-Aug-16 17:23N 34°32' E 135°20'0 0.0
2016-Aug-16 16:23N 34°32' E 135°20'0 0.0
2016-Aug-16 15:29N 34°32' E 135°20'0 0.1
2016-Aug-16 14:29N 34°32' E 135°20'0 0.1
2016-Aug-16 13:29N 34°32' E 135°20'0 0.0
2016-Aug-16 10:17N 34°32' E 135°20'0 0.0
2016-Aug-16 09:11N 34°32' E 135°20'0 0.0
2016-Aug-16 08:23N 34°32' E 135°20'5 0.6
2016-Aug-15 23:23N 34°35' E 135°26'1 0.1
2016-Aug-15 06:16N 34°35' E 135°27'1810.8
2016-Aug-15 04:33N 34°25' E 135°08'233 9.7
2016-Aug-14 04:33N 35°15' E 139°46'1211.8
2016-Aug-14 03:33N 35°27' E 139°43'3 3.1
2016-Aug-14 02:32N 35°30' E 139°43'0 0.0
2016-Aug-14 01:32N 35°30' E 139°43'0 0.0
2016-Aug-14 00:32N 35°30' E 139°43'0 0.0
2016-Aug-13 23:32N 35°30' E 139°43'0 0.1
2016-Aug-13 22:33N 35°30' E 139°43'4 3.7
2016-Aug-13 21:31N 35°29' E 139°48'0 0.0
2016-Aug-13 20:31N 35°29' E 139°48'0 0.0
2016-Aug-13 19:31N 35°29' E 139°48'0 0.0
2016-Aug-13 18:31N 35°29' E 139°48'0 0.0
2016-Aug-13 17:31N 35°29' E 139°48'0 0.0
2016-Aug-13 16:31N 35°29' E 139°48'0 0.0
2016-Aug-13 15:31N 35°29' E 139°48'0 0.0
2016-Aug-13 14:28N 35°29' E 139°48'0 0.0
2016-Aug-13 13:31N 35°29' E 139°48'0 0.0
2016-Aug-13 12:31N 35°29' E 139°48'0 0.0
2016-Aug-13 11:31N 35°29' E 139°48'0 0.0
2016-Aug-13 10:32N 35°29' E 139°48'1010.0
2016-Aug-13 09:33N 35°19' E 139°44'  

Dump ship's entire track history